createdAt,value
2019-03-21T00:00:56.593Z,89.14
2019-03-21T00:03:28.037Z,89.88
2019-03-21T00:05:59.404Z,89.69
2019-03-21T00:08:30.800Z,89.34
2019-03-21T00:12:02.135Z,89.23
2019-03-21T00:14:50.070Z,89.41
2019-03-21T00:17:24.880Z,90.39
2019-03-21T00:19:56.301Z,90.03
2019-03-21T00:22:27.643Z,89.99
2019-03-21T00:24:59.035Z,89.99
2019-03-21T00:27:30.362Z,90.14
2019-03-21T00:30:01.737Z,90.17
2019-03-21T00:32:33.057Z,90.62
2019-03-21T00:35:04.657Z,90.45
2019-03-21T00:37:36.006Z,90.37
2019-03-21T00:40:10.467Z,90.61
2019-03-21T00:42:41.865Z,90.38
2019-03-21T00:45:15.336Z,90.61
2019-03-21T00:47:46.922Z,90.56
2019-03-21T00:50:20.034Z,90.50
2019-03-21T00:52:53.324Z,90.60
2019-03-21T00:55:25.073Z,90.42
2019-03-21T00:57:59.667Z,90.84
2019-03-21T01:00:43.969Z,90.73
2019-03-21T01:03:16.222Z,91.08
2019-03-21T01:05:47.860Z,91.41
2019-03-21T01:08:19.294Z,91.01
2019-03-21T01:10:51.583Z,90.72
2019-03-21T01:13:23.446Z,91.38
2019-03-21T01:15:54.804Z,91.26
2019-03-21T01:18:26.313Z,91.04
2019-03-21T01:20:57.705Z,91.05
2019-03-21T01:23:29.306Z,91.02
2019-03-21T01:26:01.251Z,91.18
2019-03-21T01:28:32.700Z,91.12
2019-03-21T01:31:04.134Z,91.00
2019-03-21T01:33:35.638Z,91.21
2019-03-21T01:36:07.048Z,91.78
2019-03-21T01:38:38.472Z,91.77
2019-03-21T01:41:09.937Z,91.66
2019-03-21T01:43:41.456Z,92.03
2019-03-21T01:46:13.632Z,91.79
2019-03-21T01:48:45.148Z,91.59
2019-03-21T01:51:17.488Z,91.57
2019-03-21T01:53:48.904Z,92.17
2019-03-21T01:56:20.442Z,92.39
2019-03-21T01:58:54.671Z,92.66
2019-03-21T02:01:27.391Z,92.63
2019-03-21T02:03:58.806Z,92.38
2019-03-21T02:06:30.267Z,92.35
2019-03-21T02:09:01.880Z,92.57
2019-03-21T02:11:33.407Z,92.47
2019-03-21T02:14:04.934Z,92.56
2019-03-21T02:16:36.553Z,92.86
2019-03-21T02:19:10.947Z,92.66
2019-03-21T02:21:42.921Z,92.43
2019-03-21T02:24:14.521Z,92.31
2019-03-21T02:26:45.979Z,92.50
2019-03-21T02:29:20.580Z,92.68
2019-03-21T02:31:52.078Z,93.37
2019-03-21T02:34:23.795Z,93.56
2019-03-21T02:36:55.236Z,93.74
2019-03-21T02:39:27.720Z,93.91
2019-03-21T02:41:59.145Z,93.25
2019-03-21T02:44:30.648Z,93.37
2019-03-21T02:47:02.117Z,93.34
2019-03-21T02:49:33.862Z,93.23
2019-03-21T02:52:05.629Z,93.07
2019-03-21T02:54:37.693Z,93.10
2019-03-21T02:57:09.216Z,93.25
2019-03-21T02:59:41.245Z,93.05
2019-03-21T03:02:12.868Z,92.67
2019-03-21T03:04:44.485Z,93.19
2019-03-21T03:07:16.722Z,93.61
2019-03-21T03:09:48.347Z,93.94
2019-03-21T03:12:21.695Z,94.25
2019-03-21T03:14:53.129Z,94.26
2019-03-21T03:17:27.796Z,93.86
2019-03-21T03:20:06.999Z,93.62
2019-03-21T03:22:38.859Z,93.40
2019-03-21T03:25:12.213Z,93.58
2019-03-21T03:27:44.034Z,93.59
2019-03-21T03:30:22.897Z,93.60
2019-03-21T03:32:54.570Z,93.69
2019-03-21T03:35:26.414Z,93.62
2019-03-21T03:37:57.879Z,94.10
2019-03-21T03:40:34.054Z,94.05
2019-03-21T03:43:05.645Z,94.24
2019-03-21T03:45:38.563Z,94.06
2019-03-21T03:48:10.429Z,94.22
2019-03-21T03:50:42.816Z,94.08
2019-03-21T03:53:14.341Z,94.06
2019-03-21T03:55:46.020Z,93.93
2019-03-21T03:58:19.005Z,93.41
2019-03-21T04:00:56.189Z,93.15
2019-03-21T04:03:27.854Z,92.97
2019-03-21T04:05:59.498Z,92.93
2019-03-21T04:08:30.959Z,92.81
2019-03-21T04:11:03.188Z,92.74
2019-03-21T04:13:34.677Z,92.94
2019-03-21T04:16:06.362Z,93.06
2019-03-21T04:18:40.348Z,93.15
2019-03-21T04:21:12.101Z,92.84
2019-03-21T04:23:43.470Z,92.75
2019-03-21T04:26:20.964Z,92.54
2019-03-21T04:28:52.817Z,92.00
2019-03-21T04:31:29.243Z,91.96
2019-03-21T04:34:04.902Z,92.34
2019-03-21T04:36:38.120Z,92.42
2019-03-21T04:39:13.382Z,92.36
2019-03-21T04:41:45.590Z,92.60
2019-03-21T04:44:20.384Z,92.35
2019-03-21T04:46:52.081Z,92.45
2019-03-21T04:49:25.114Z,92.27
2019-03-21T04:51:56.825Z,91.95
2019-03-21T04:54:29.166Z,91.74
2019-03-21T04:57:05.040Z,91.58
2019-03-21T04:59:36.963Z,91.63
2019-03-21T05:02:12.019Z,91.90
2019-03-21T05:04:43.518Z,91.96
2019-03-21T05:07:14.959Z,91.98
2019-03-21T05:09:46.871Z,92.28
2019-03-21T05:12:18.397Z,92.32
2019-03-21T05:14:52.533Z,91.98
2019-03-21T05:17:25.444Z,91.92
2019-03-21T05:19:57.415Z,92.00
2019-03-21T05:22:30.913Z,91.99
2019-03-21T05:25:06.697Z,91.83
2019-03-21T05:27:38.620Z,91.98
2019-03-21T05:30:14.959Z,92.20
2019-03-21T05:32:46.946Z,92.06
2019-03-21T05:35:18.320Z,92.07
2019-03-21T05:37:49.851Z,92.39
2019-03-21T05:40:21.704Z,93.31
2019-03-21T05:42:59.964Z,93.31
2019-03-21T05:45:31.399Z,93.02
2019-03-21T05:48:02.792Z,93.70
2019-03-21T05:50:34.187Z,94.13
2019-03-21T05:53:05.650Z,94.12
2019-03-21T05:55:37.064Z,94.11
2019-03-21T05:58:08.740Z,93.97
2019-03-21T06:00:42.511Z,94.57
2019-03-21T06:03:19.736Z,94.49
2019-03-21T06:05:57.655Z,94.14
2019-03-21T06:08:37.600Z,94.04
2019-03-21T06:11:09.050Z,94.60
2019-03-21T06:13:40.474Z,95.36
2019-03-21T06:16:12.921Z,95.84
2019-03-21T06:19:17.545Z,95.55
2019-03-21T06:22:40.160Z,95.18
2019-03-21T06:25:58.725Z,95.17
2019-03-21T06:28:35.105Z,95.76
2019-03-21T06:31:08.565Z,96.04
2019-03-21T06:33:39.824Z,96.24
2019-03-21T06:36:11.537Z,95.88
2019-03-21T06:38:42.963Z,96.30
2019-03-21T06:41:14.428Z,96.14
2019-03-21T06:43:46.349Z,95.61
2019-03-21T06:46:17.921Z,96.32
2019-03-21T06:48:49.619Z,96.47
2019-03-21T06:51:21.114Z,96.09
2019-03-21T06:53:52.665Z,97.01
2019-03-21T06:56:24.151Z,97.14
2019-03-21T06:58:55.823Z,96.63
2019-03-21T07:01:27.595Z,96.51
2019-03-21T07:04:07.076Z,96.36
2019-03-21T07:06:32.526Z,97.47
2019-03-21T07:09:05.973Z,97.77
2019-03-21T07:11:37.494Z,97.84
2019-03-21T07:14:09.237Z,98.27
2019-03-21T07:16:40.690Z,98.36
2019-03-21T07:19:12.297Z,98.15
2019-03-21T07:21:43.737Z,97.78
2019-03-21T07:24:17.117Z,97.58
2019-03-21T07:26:48.463Z,97.98
2019-03-21T07:29:19.987Z,98.23
2019-03-21T07:31:51.378Z,98.26
2019-03-21T07:34:22.837Z,98.27
2019-03-21T07:36:57.429Z,98.18
2019-03-21T07:39:28.930Z,98.00
2019-03-21T07:42:01.391Z,98.07
2019-03-21T07:44:33.070Z,98.08
2019-03-21T07:47:12.813Z,98.08
2019-03-21T07:49:40.353Z,97.73
2019-03-21T07:52:11.769Z,97.50
2019-03-21T07:54:43.222Z,97.46
2019-03-21T07:57:14.638Z,97.58
2019-03-21T07:59:46.000Z,97.38
2019-03-21T08:02:17.409Z,97.18
2019-03-21T08:04:50.152Z,96.76
2019-03-21T08:07:21.585Z,96.43
2019-03-21T08:09:52.987Z,96.15
2019-03-21T08:12:24.438Z,96.25
2019-03-21T08:14:57.480Z,96.31
2019-03-21T08:17:30.668Z,95.83
2019-03-21T08:20:02.134Z,95.37
2019-03-21T08:22:33.501Z,95.12
2019-03-21T08:25:05.193Z,94.82
2019-03-21T08:27:39.102Z,94.31
2019-03-21T08:30:17.480Z,94.48
2019-03-21T08:32:49.515Z,94.29
2019-03-21T08:35:20.940Z,94.05
2019-03-21T08:37:52.321Z,93.72
2019-03-21T08:40:23.744Z,93.37
2019-03-21T08:42:55.150Z,93.16
2019-03-21T08:45:28.355Z,92.94
2019-03-21T08:47:59.741Z,92.82
2019-03-21T08:50:31.122Z,92.25
2019-03-21T08:53:02.512Z,92.33
2019-03-21T08:55:33.944Z,91.95
2019-03-21T08:58:05.282Z,91.76
2019-03-21T09:00:36.734Z,91.17
2019-03-21T09:03:08.102Z,90.11
2019-03-21T09:05:39.546Z,82.57
2019-03-21T09:08:10.926Z,80.20
2019-03-21T09:10:42.385Z,79.67
2019-03-21T09:13:13.791Z,78.38
2019-03-21T09:15:45.204Z,77.11
2019-03-21T09:18:16.608Z,76.39
2019-03-21T09:20:48.017Z,75.66
2019-03-21T09:23:19.478Z,76.07
2019-03-21T09:25:53.264Z,76.54
2019-03-21T09:28:24.621Z,76.09
2019-03-21T09:30:56.636Z,75.91
2019-03-21T09:33:28.300Z,75.20
2019-03-21T09:35:59.780Z,75.37
2019-03-21T09:38:33.034Z,74.89
2019-03-21T09:41:04.473Z,74.35
2019-03-21T09:43:35.947Z,73.26
2019-03-21T09:46:07.428Z,71.00
2019-03-21T09:48:41.821Z,69.79
2019-03-21T09:51:13.221Z,69.29
2019-03-21T09:53:47.607Z,64.82
2019-03-21T09:56:19.083Z,63.44
2019-03-21T09:58:50.435Z,62.67
2019-03-21T10:01:21.835Z,60.99
2019-03-21T10:03:53.242Z,60.35
2019-03-21T10:06:26.411Z,60.20
2019-03-21T10:08:57.782Z,59.66
2019-03-21T10:11:30.977Z,57.71
2019-03-21T10:14:02.337Z,57.28
2019-03-21T10:16:33.768Z,55.17
2019-03-21T10:19:05.245Z,56.49
2019-03-21T10:21:43.402Z,57.08
2019-03-21T10:24:09.794Z,57.13
2019-03-21T10:26:41.294Z,57.95
2019-03-21T10:29:12.661Z,57.90
2019-03-21T10:31:44.161Z,58.49
2019-03-21T10:34:17.012Z,59.17
2019-03-21T10:36:48.439Z,58.94
2019-03-21T10:39:19.810Z,58.54
2019-03-21T10:41:51.278Z,57.08
2019-03-21T10:44:22.745Z,58.01
2019-03-21T10:46:54.166Z,57.45
2019-03-21T10:49:25.520Z,56.81
2019-03-21T10:51:56.977Z,56.33
2019-03-21T10:54:31.095Z,54.93
2019-03-21T10:57:05.264Z,55.01
2019-03-21T10:59:36.620Z,53.82
2019-03-21T11:02:08.006Z,54.31
2019-03-21T11:04:39.405Z,54.90
2019-03-21T11:07:08.033Z,53.27
2019-03-21T11:09:39.446Z,52.33
2019-03-21T11:12:10.841Z,53.44
2019-03-21T11:14:42.197Z,52.64
2019-03-21T11:17:13.639Z,53.12
2019-03-21T11:19:45.059Z,53.25
2019-03-21T11:22:16.525Z,52.08
2019-03-21T11:24:48.893Z,51.94
2019-03-21T11:27:20.352Z,53.08
2019-03-21T11:29:51.735Z,52.47
2019-03-21T11:32:23.172Z,52.53
2019-03-21T11:34:56.352Z,52.70
2019-03-21T11:37:28.999Z,51.84
2019-03-21T11:40:00.418Z,51.95
2019-03-21T11:42:31.864Z,51.88
2019-03-21T11:45:03.283Z,51.42
2019-03-21T11:47:41.828Z,51.87
2019-03-21T11:50:08.127Z,52.03
2019-03-21T11:52:41.056Z,51.75
2019-03-21T11:55:13.589Z,50.74
2019-03-21T11:57:45.032Z,50.43
2019-03-21T12:00:17.591Z,49.09
2019-03-21T12:02:49.047Z,47.63
2019-03-21T12:05:20.463Z,48.21
2019-03-21T12:07:51.865Z,48.86
2019-03-21T12:10:23.256Z,48.63
2019-03-21T12:12:54.721Z,48.55
2019-03-21T12:15:26.097Z,48.80
2019-03-21T12:17:57.560Z,50.35
2019-03-21T12:20:37.967Z,49.56
2019-03-21T12:23:09.427Z,49.69
2019-03-21T12:25:40.770Z,47.96
2019-03-21T12:28:12.232Z,46.85
2019-03-21T12:30:44.801Z,47.99
2019-03-21T12:33:16.270Z,48.42
2019-03-21T12:35:50.609Z,49.32
2019-03-21T12:38:21.999Z,47.65
2019-03-21T12:40:53.400Z,47.92
2019-03-21T12:43:24.853Z,48.28
2019-03-21T12:45:56.219Z,48.24
2019-03-21T12:48:27.661Z,48.15
2019-03-21T12:50:58.978Z,47.53
2019-03-21T12:53:30.468Z,46.96
2019-03-21T12:56:01.829Z,47.57
2019-03-21T12:58:33.286Z,46.28
2019-03-21T13:01:04.636Z,46.60
2019-03-21T13:03:36.151Z,46.49
2019-03-21T13:06:09.335Z,46.05
2019-03-21T13:08:40.779Z,46.68
2019-03-21T13:11:14.033Z,45.23
2019-03-21T13:13:45.440Z,46.12
2019-03-21T13:16:16.819Z,44.56
2019-03-21T13:18:48.244Z,44.82
2019-03-21T13:21:19.613Z,45.30
2019-03-21T13:23:51.124Z,46.35
2019-03-21T13:26:23.959Z,45.72
2019-03-21T13:28:55.418Z,45.07
2019-03-21T13:31:26.788Z,45.28
2019-03-21T13:33:58.251Z,44.87
2019-03-21T13:36:29.601Z,44.32
2019-03-21T13:39:01.035Z,43.36
2019-03-21T13:41:35.195Z,44.11
2019-03-21T13:44:06.583Z,44.37
2019-03-21T13:46:38.042Z,43.54
2019-03-21T13:49:10.695Z,43.68
2019-03-21T13:51:45.065Z,42.45
2019-03-21T13:54:16.473Z,42.53
2019-03-21T13:56:47.847Z,43.02
2019-03-21T13:59:19.333Z,43.49
2019-03-21T14:01:52.280Z,42.66
2019-03-21T14:04:23.669Z,39.32
2019-03-21T14:06:55.069Z,36.10
2019-03-21T14:09:26.496Z,35.80
2019-03-21T14:11:57.913Z,36.39
2019-03-21T14:14:29.384Z,37.02
2019-03-21T14:17:00.774Z,36.36
2019-03-21T14:19:32.260Z,34.40
2019-03-21T14:22:03.643Z,33.44
2019-03-21T14:24:35.819Z,33.94
2019-03-21T14:27:07.423Z,33.96
2019-03-21T14:29:38.922Z,33.48
2019-03-21T14:32:10.342Z,34.32
2019-03-21T14:34:41.942Z,33.39
2019-03-21T14:37:13.349Z,33.78
2019-03-21T14:39:44.776Z,35.92
2019-03-21T14:42:16.240Z,35.92
2019-03-21T14:44:47.629Z,35.11
2019-03-21T14:47:19.121Z,34.62
2019-03-21T14:49:53.020Z,34.36
2019-03-21T14:52:23.627Z,34.75
2019-03-21T14:54:55.116Z,36.37
2019-03-21T14:57:26.497Z,35.97
2019-03-21T14:59:57.985Z,36.24
2019-03-21T15:02:29.394Z,35.69
2019-03-21T15:05:00.798Z,35.60
2019-03-21T15:07:32.214Z,36.70
2019-03-21T15:10:03.657Z,37.72
2019-03-21T15:12:35.041Z,36.26
2019-03-21T15:15:08.901Z,35.00
2019-03-21T15:17:40.279Z,35.14
2019-03-21T15:20:14.195Z,34.39
2019-03-21T15:22:45.866Z,35.35
2019-03-21T15:25:17.273Z,35.96
2019-03-21T15:27:51.712Z,35.25
2019-03-21T15:30:23.313Z,35.28
2019-03-21T15:32:54.798Z,35.05
2019-03-21T15:35:26.225Z,35.65
2019-03-21T15:37:57.633Z,34.72
2019-03-21T15:40:29.051Z,35.60
2019-03-21T15:43:00.456Z,35.95
2019-03-21T15:45:31.920Z,35.36
2019-03-21T15:48:03.357Z,35.96
2019-03-21T15:50:38.651Z,34.70
2019-03-21T15:53:10.789Z,34.98
2019-03-21T15:55:42.296Z,34.87
2019-03-21T15:58:13.755Z,35.34
2019-03-21T16:00:45.322Z,34.15
2019-03-21T16:03:16.713Z,34.54
2019-03-21T16:05:48.156Z,33.28
2019-03-21T16:08:19.623Z,35.28
2019-03-21T16:10:51.032Z,34.21
2019-03-21T16:13:22.348Z,32.36
2019-03-21T16:15:56.157Z,31.95
2019-03-21T16:18:27.568Z,31.67
2019-03-21T16:20:59.044Z,32.46
2019-03-21T16:23:30.426Z,32.91
2019-03-21T16:26:01.870Z,35.94
2019-03-21T16:28:33.298Z,35.69
2019-03-21T16:31:04.751Z,35.50
2019-03-21T16:33:36.158Z,34.57
2019-03-21T16:36:07.568Z,35.51
2019-03-21T16:38:38.925Z,33.89
2019-03-21T16:41:10.414Z,38.35
2019-03-21T16:43:41.849Z,36.99
2019-03-21T16:46:13.323Z,35.82
2019-03-21T16:48:44.691Z,36.50
2019-03-21T16:51:16.202Z,36.51
2019-03-21T16:53:47.615Z,37.24
2019-03-21T16:56:19.102Z,38.09
2019-03-21T16:58:50.528Z,39.12
2019-03-21T17:01:21.993Z,38.88
2019-03-21T17:03:53.419Z,42.09
2019-03-21T17:06:24.870Z,42.40
2019-03-21T17:08:56.344Z,42.75
2019-03-21T17:11:27.789Z,44.61
2019-03-21T17:13:59.180Z,46.75
2019-03-21T17:16:30.617Z,46.66
2019-03-21T17:19:02.127Z,48.88
2019-03-21T17:21:33.648Z,48.05
2019-03-21T17:24:05.082Z,47.25
2019-03-21T17:26:36.468Z,47.01
2019-03-21T17:29:07.884Z,48.46
2019-03-21T17:31:39.316Z,47.88
2019-03-21T17:34:10.676Z,49.12
2019-03-21T17:36:42.524Z,48.71
2019-03-21T17:39:13.895Z,48.98
2019-03-21T17:41:45.365Z,50.03
2019-03-21T17:44:19.756Z,50.33
2019-03-21T17:46:51.234Z,50.96
2019-03-21T17:49:24.389Z,50.96
2019-03-21T17:51:57.587Z,51.98
2019-03-21T17:54:40.687Z,52.27
2019-03-21T17:57:02.204Z,52.30
2019-03-21T17:59:33.571Z,52.99
2019-03-21T18:02:05.017Z,53.18
2019-03-21T18:04:36.569Z,53.53
2019-03-21T18:07:08.027Z,54.54
2019-03-21T18:09:39.436Z,54.46
2019-03-21T18:12:16.178Z,54.88
2019-03-21T18:14:52.258Z,55.68
2019-03-21T18:17:23.714Z,56.28
2019-03-21T18:19:55.126Z,57.03
2019-03-21T18:22:26.524Z,57.84
2019-03-21T18:24:59.387Z,58.07
2019-03-21T18:27:30.841Z,58.84
2019-03-21T18:30:02.419Z,58.80
2019-03-21T18:32:35.260Z,58.91
2019-03-21T18:35:09.142Z,58.21
2019-03-21T18:37:40.558Z,59.40
2019-03-21T18:40:12.186Z,59.74
2019-03-21T18:42:43.634Z,60.05
2019-03-21T18:45:16.083Z,60.38
2019-03-21T18:47:48.151Z,60.85
2019-03-21T18:50:19.691Z,60.87
2019-03-21T18:52:51.132Z,60.95
2019-03-21T18:55:22.565Z,62.14
2019-03-21T18:57:53.971Z,61.69
2019-03-21T19:00:28.140Z,62.12
2019-03-21T19:03:00.755Z,62.93
2019-03-21T19:05:32.235Z,62.11
2019-03-21T19:08:03.738Z,63.01
2019-03-21T19:10:35.078Z,63.02
2019-03-21T19:13:06.506Z,64.06
2019-03-21T19:15:39.051Z,64.21
2019-03-21T19:18:10.487Z,64.34
2019-03-21T19:20:41.911Z,64.96
2019-03-21T19:23:13.363Z,65.04
2019-03-21T19:25:44.718Z,65.51
2019-03-21T19:28:16.227Z,65.89
2019-03-21T19:30:47.564Z,66.05
2019-03-21T19:33:22.081Z,66.17
2019-03-21T19:35:53.507Z,66.59
2019-03-21T19:38:25.000Z,66.89
2019-03-21T19:40:56.400Z,67.37
2019-03-21T19:43:27.765Z,67.14
2019-03-21T19:46:02.434Z,67.91
2019-03-21T19:48:33.808Z,67.67
2019-03-21T19:51:05.326Z,68.32
2019-03-21T19:53:36.720Z,68.08
2019-03-21T19:56:09.002Z,67.97
2019-03-21T19:58:40.458Z,68.11
2019-03-21T20:01:11.920Z,69.73
2019-03-21T20:03:43.307Z,70.04
2019-03-21T20:06:16.788Z,70.39
2019-03-21T20:08:48.182Z,70.27
2019-03-21T20:11:19.591Z,69.95
2019-03-21T20:13:53.088Z,69.85
2019-03-21T20:16:25.723Z,71.11
2019-03-21T20:18:57.097Z,71.32
2019-03-21T20:21:28.528Z,71.45
2019-03-21T20:23:59.927Z,71.41
2019-03-21T20:26:32.605Z,72.39
2019-03-21T20:29:04.008Z,72.27
2019-03-21T20:31:35.456Z,72.96
2019-03-21T20:34:07.923Z,72.55
2019-03-21T20:36:39.387Z,72.61
2019-03-21T20:39:10.823Z,73.55
2019-03-21T20:41:42.364Z,74.29
2019-03-21T20:44:16.103Z,74.16
2019-03-21T20:46:47.583Z,74.02
2019-03-21T20:49:18.980Z,75.32
2019-03-21T20:51:50.445Z,75.70
2019-03-21T20:54:24.025Z,74.98
2019-03-21T20:56:55.431Z,76.09
2019-03-21T20:59:26.831Z,76.12
2019-03-21T21:02:02.777Z,75.87
2019-03-21T21:04:31.353Z,76.02
2019-03-21T21:07:02.770Z,75.91
2019-03-21T21:09:37.054Z,76.83
2019-03-21T21:12:08.424Z,77.02
2019-03-21T21:14:39.792Z,76.87
2019-03-21T21:17:11.365Z,77.29
2019-03-21T21:19:42.712Z,77.13
2019-03-21T21:22:14.092Z,78.40
2019-03-21T21:24:47.888Z,78.92
2019-03-21T21:27:19.311Z,78.50
2019-03-21T21:29:50.745Z,77.85
2019-03-21T21:32:22.147Z,78.20
2019-03-21T21:34:54.780Z,78.41
2019-03-21T21:37:26.262Z,78.89
2019-03-21T21:39:57.697Z,79.73
2019-03-21T21:42:29.107Z,79.07
2019-03-21T21:45:00.478Z,78.48
2019-03-21T21:47:31.879Z,79.13
2019-03-21T21:50:14.853Z,79.80
2019-03-21T21:52:45.985Z,79.94
2019-03-21T21:55:17.552Z,80.42
2019-03-21T21:57:48.900Z,79.94
2019-03-21T22:00:20.496Z,79.86
2019-03-21T22:02:52.036Z,79.77
2019-03-21T22:05:23.719Z,80.21
2019-03-21T22:07:55.130Z,80.33
2019-03-21T22:10:29.335Z,80.35
2019-03-21T22:12:59.683Z,79.87
2019-03-21T22:15:31.119Z,81.26
2019-03-21T22:18:06.332Z,81.37
2019-03-21T22:20:37.739Z,81.34
2019-03-21T22:23:09.142Z,81.69
2019-03-21T22:25:40.532Z,82.16
2019-03-21T22:28:12.012Z,82.30
2019-03-21T22:30:43.431Z,81.93
2019-03-21T22:33:14.908Z,81.71
2019-03-21T22:35:47.418Z,82.74
2019-03-21T22:38:18.743Z,83.10
2019-03-21T22:40:50.202Z,82.61
2019-03-21T22:43:21.578Z,82.73
2019-03-21T22:45:53.055Z,82.35
2019-03-21T22:48:24.404Z,82.26
2019-03-21T22:50:55.843Z,82.60
2019-03-21T22:53:27.226Z,83.50
2019-03-21T22:55:58.676Z,83.39
2019-03-21T22:58:31.898Z,83.21
2019-03-21T23:01:03.456Z,83.81
2019-03-21T23:03:34.851Z,84.57
2019-03-21T23:06:06.446Z,84.22
2019-03-21T23:08:37.871Z,83.89
2019-03-21T23:11:10.420Z,84.10
2019-03-21T23:13:41.827Z,84.32
2019-03-21T23:16:13.306Z,84.42
2019-03-21T23:18:47.428Z,84.83
2019-03-21T23:21:19.893Z,84.67
2019-03-21T23:23:51.311Z,84.15
2019-03-21T23:26:24.020Z,84.27
2019-03-21T23:28:56.610Z,84.75
2019-03-21T23:31:28.041Z,84.42
2019-03-21T23:33:59.448Z,84.78
2019-03-21T23:36:31.039Z,84.95
2019-03-21T23:39:02.403Z,85.84
2019-03-21T23:41:33.891Z,85.63
2019-03-21T23:44:05.287Z,85.83
2019-03-21T23:46:36.705Z,85.56
2019-03-21T23:49:08.109Z,86.10
2019-03-21T23:51:39.550Z,86.60
2019-03-21T23:54:10.931Z,86.37
2019-03-21T23:56:42.364Z,85.80
2019-03-21T23:59:13.790Z,85.41
